CMP360 MPTO-KLAX
Flight info
| Callsign | CMP360 |
|---|---|
| Flight time | N/A |
| Altitude | 32000 |
| Route | SIMAN3A SIMAN DCT ALGEN DCT AMUBI DCT VOKAS DCT ATUTO DCT AXOMU/N0463F340 DCT RAULS DCT CVM DCT AVAPA DCT ASUTA DCT AMMOR OLAAA2 |
| Aircraft | B738/M-SDGIJ1LRWY/SB1 |
Departure
| Time | 2026-04-27 14:02 |
|---|---|
| Airport | Tocumen International Airport (MPTO) |
Arrival
| Time | N/A |
|---|---|
| Airport | Los Angeles International Airport (KLAX) |
| Time | Latitude | Longitude | Altitude | Speed | Heading |
|---|---|---|---|---|---|
| 2026-04-27 13:18 | 9.06077 | -79.39072 | 142 ft | 0 kts | 321° |
| 2026-04-27 13:50 | 9.06073 | -79.39070 | 142 ft | 2 kts | 321° |
| 2026-04-27 13:50 | 9.06062 | -79.39060 | 142 ft | 2 kts | 320° |
| 2026-04-27 13:50 | 9.06052 | -79.39052 | 142 ft | 2 kts | 304° |
| 2026-04-27 13:50 | 9.06046 | -79.39037 | 142 ft | 2 kts | 277° |
| 2026-04-27 13:51 | 9.06047 | -79.39023 | 142 ft | 2 kts | 249° |
| 2026-04-27 13:51 | 9.06054 | -79.39011 | 142 ft | 0 kts | 225° |
| 2026-04-27 13:51 | 9.06063 | -79.39003 | 142 ft | 0 kts | 222° |
| 2026-04-27 13:51 | 9.06065 | -79.39002 | 142 ft | 0 kts | 224° |
| 2026-04-27 13:57 | 9.06054 | -79.39011 | 142 ft | 5 kts | 224° |
| 2026-04-27 13:57 | 9.06006 | -79.39047 | 142 ft | 11 kts | 210° |
| 2026-04-27 13:57 | 9.05943 | -79.39083 | 142 ft | 9 kts | 209° |
| 2026-04-27 13:57 | 9.05879 | -79.39119 | 142 ft | 13 kts | 210° |
| 2026-04-27 13:58 | 9.05780 | -79.39177 | 142 ft | 16 kts | 211° |
| 2026-04-27 13:58 | 9.05711 | -79.39174 | 142 ft | 10 kts | 128° |
| 2026-04-27 13:58 | 9.05654 | -79.39072 | 142 ft | 22 kts | 120° |
| 2026-04-27 13:58 | 9.05602 | -79.38991 | 142 ft | 9 kts | 150° |
| 2026-04-27 13:59 | 9.05529 | -79.39015 | 142 ft | 16 kts | 210° |
| 2026-04-27 13:59 | 9.05405 | -79.39085 | 142 ft | 25 kts | 209° |
| 2026-04-27 13:59 | 9.05245 | -79.39176 | 141 ft | 25 kts | 209° |
| 2026-04-27 13:59 | 9.05098 | -79.39259 | 141 ft | 23 kts | 209° |
| 2026-04-27 14:00 | 9.04967 | -79.39335 | 141 ft | 19 kts | 210° |
| 2026-04-27 14:00 | 9.04867 | -79.39374 | 141 ft | 11 kts | 167° |
| 2026-04-27 14:00 | 9.04836 | -79.39342 | 141 ft | 1 kts | 119° |
| 2026-04-27 14:00 | 9.04830 | -79.39331 | 141 ft | 2 kts | 119° |
| 2026-04-27 14:01 | 9.04809 | -79.39294 | 141 ft | 10 kts | 119° |
| 2026-04-27 14:01 | 9.04795 | -79.39244 | 141 ft | 5 kts | 54° |
| 2026-04-27 14:01 | 9.04816 | -79.39230 | 141 ft | 0 kts | 28° |
| 2026-04-27 14:02 | 9.04945 | -79.39158 | 141 ft | 57 kts | 30° |
| 2026-04-27 14:02 | 9.05518 | -79.38831 | 142 ft | 128 kts | 29° |
| 2026-04-27 14:02 | 9.06481 | -79.38284 | 150 ft | 185 kts | 30° |
| 2026-04-27 14:02 | 9.07639 | -79.37624 | 779 ft | 196 kts | 30° |
| 2026-04-27 14:03 | 9.08837 | -79.36960 | 1678 ft | 199 kts | 29° |
| 2026-04-27 14:03 | 9.10064 | -79.36283 | 2294 ft | 208 kts | 30° |
| 2026-04-27 14:03 | 9.11373 | -79.35523 | 2819 ft | 222 kts | 31° |
| 2026-04-27 14:03 | 9.12750 | -79.34728 | 3257 ft | 242 kts | 29° |
| 2026-04-27 14:04 | 9.14268 | -79.33897 | 3874 ft | 253 kts | 29° |
| 2026-04-27 14:04 | 9.15846 | -79.33023 | 4507 ft | 264 kts | 29° |
| 2026-04-27 14:04 | 9.17473 | -79.32110 | 5314 ft | 268 kts | 29° |
| 2026-04-27 14:04 | 9.19102 | -79.31190 | 6126 ft | 271 kts | 29° |
| 2026-04-27 14:05 | 9.20750 | -79.30260 | 6845 ft | 276 kts | 27° |
| 2026-04-27 14:05 | 9.22571 | -79.29675 | 7605 ft | 279 kts | 3° |
| 2026-04-27 14:05 | 9.24513 | -79.29961 | 8341 ft | 283 kts | 342° |
| 2026-04-27 14:05 | 9.26331 | -79.30691 | 9042 ft | 287 kts | 332° |
| 2026-04-27 14:06 | 9.27883 | -79.31976 | 9696 ft | 294 kts | 306° |
| 2026-04-27 14:06 | 9.28811 | -79.33805 | 10435 ft | 297 kts | 291° |
| 2026-04-27 14:06 | 9.29289 | -79.35844 | 11068 ft | 303 kts | 273° |
| 2026-04-27 14:06 | 9.29171 | -79.37976 | 11769 ft | 305 kts | 264° |
| 2026-04-27 14:07 | 9.28885 | -79.40105 | 12414 ft | 309 kts | 263° |
| 2026-04-27 14:07 | 9.28604 | -79.42255 | 13026 ft | 313 kts | 263° |
| 2026-04-27 14:07 | 9.28335 | -79.44468 | 13682 ft | 315 kts | 264° |
| 2026-04-27 14:07 | 9.28077 | -79.46667 | 14252 ft | 319 kts | 264° |
| 2026-04-27 14:08 | 9.27819 | -79.48895 | 14881 ft | 321 kts | 264° |
| 2026-04-27 14:08 | 9.27560 | -79.51140 | 15450 ft | 325 kts | 264° |
| 2026-04-27 14:08 | 9.27375 | -79.53429 | 15989 ft | 328 kts | 269° |
| 2026-04-27 14:08 | 9.27490 | -79.55727 | 16518 ft | 332 kts | 279° |
| 2026-04-27 14:09 | 9.27982 | -79.58078 | 16723 ft | 347 kts | 285° |
| 2026-04-27 14:09 | 9.28664 | -79.60458 | 16929 ft | 362 kts | 287° |
| 2026-04-27 14:09 | 9.29406 | -79.62938 | 17152 ft | 375 kts | 287° |
| 2026-04-27 14:09 | 9.30170 | -79.65511 | 17282 ft | 391 kts | 287° |
| 2026-04-27 14:10 | 9.30963 | -79.68218 | 17455 ft | 404 kts | 287° |
| 2026-04-27 14:10 | 9.31771 | -79.70997 | 17656 ft | 416 kts | 286° |
| 2026-04-27 14:10 | 9.32583 | -79.73806 | 18110 ft | 421 kts | 286° |
| 2026-04-27 14:10 | 9.33401 | -79.76641 | 18579 ft | 424 kts | 286° |
| 2026-04-27 14:11 | 9.34233 | -79.79527 | 19084 ft | 427 kts | 286° |
| 2026-04-27 14:11 | 9.35072 | -79.82413 | 19585 ft | 429 kts | 287° |
| 2026-04-27 14:11 | 9.36000 | -79.85281 | 20071 ft | 432 kts | 290° |
| 2026-04-27 14:11 | 9.37200 | -79.88100 | 20534 ft | 435 kts | 296° |
| 2026-04-27 14:12 | 9.38607 | -79.90820 | 20986 ft | 438 kts | 298° |
| 2026-04-27 14:12 | 9.40083 | -79.93502 | 21422 ft | 440 kts | 299° |
| 2026-04-27 14:12 | 9.41609 | -79.96227 | 21816 ft | 444 kts | 300° |
| 2026-04-27 14:12 | 9.43119 | -79.98917 | 22258 ft | 447 kts | 300° |
| 2026-04-27 14:13 | 9.44669 | -80.01681 | 22701 ft | 449 kts | 299° |
| 2026-04-27 14:13 | 9.46201 | -80.04421 | 23120 ft | 451 kts | 298° |
| 2026-04-27 14:13 | 9.47745 | -80.07188 | 23534 ft | 454 kts | 298° |
| 2026-04-27 14:13 | 9.49301 | -80.09979 | 23929 ft | 456 kts | 298° |
| 2026-04-27 14:14 | 9.50872 | -80.12801 | 24317 ft | 459 kts | 298° |
| 2026-04-27 14:14 | 9.52445 | -80.15631 | 24669 ft | 463 kts | 298° |
| 2026-04-27 14:14 | 9.54035 | -80.18491 | 25081 ft | 464 kts | 297° |
| 2026-04-27 14:14 | 9.55622 | -80.21347 | 25400 ft | 468 kts | 297° |
| 2026-04-27 14:15 | 9.57209 | -80.24205 | 25763 ft | 470 kts | 297° |
| 2026-04-27 14:15 | 9.58835 | -80.27132 | 26118 ft | 473 kts | 297° |
| 2026-04-27 14:15 | 9.60436 | -80.30018 | 26434 ft | 476 kts | 297° |
| 2026-04-27 14:15 | 9.62077 | -80.32975 | 26815 ft | 477 kts | 297° |
| 2026-04-27 14:16 | 9.63707 | -80.35915 | 27125 ft | 480 kts | 297° |
| 2026-04-27 14:16 | 9.65331 | -80.38844 | 27471 ft | 481 kts | 297° |
| 2026-04-27 14:16 | 9.66967 | -80.41794 | 27990 ft | 479 kts | 297° |
| 2026-04-27 14:16 | 9.68606 | -80.44748 | 28483 ft | 476 kts | 296° |
| 2026-04-27 14:17 | 9.70215 | -80.47649 | 28944 ft | 475 kts | 296° |
| 2026-04-27 14:17 | 9.71840 | -80.50579 | 29371 ft | 474 kts | 296° |
| 2026-04-27 14:17 | 9.73453 | -80.53490 | 29837 ft | 472 kts | 296° |
| 2026-04-27 14:17 | 9.75042 | -80.56361 | 30225 ft | 472 kts | 296° |
| 2026-04-27 14:18 | 9.76650 | -80.59269 | 30623 ft | 471 kts | 296° |
| 2026-04-27 14:18 | 9.78262 | -80.62183 | 30990 ft | 471 kts | 296° |
| 2026-04-27 14:18 | 9.79853 | -80.65061 | 31411 ft | 470 kts | 296° |
| 2026-04-27 14:18 | 9.81456 | -80.67960 | 31772 ft | 469 kts | 296° |
| 2026-04-27 14:19 | 9.83070 | -80.70881 | 32180 ft | 468 kts | 296° |
| 2026-04-27 14:19 | 9.84662 | -80.73761 | 32535 ft | 467 kts | 296° |
| 2026-04-27 14:19 | 9.86228 | -80.76595 | 32902 ft | 466 kts | 296° |
| 2026-04-27 14:19 | 9.87830 | -80.79495 | 33297 ft | 464 kts | 296° |
| 2026-04-27 14:20 | 9.89400 | -80.82336 | 33723 ft | 462 kts | 296° |
| 2026-04-27 14:20 | 9.90950 | -80.85143 | 34172 ft | 459 kts | 296° |
| 2026-04-27 14:20 | 9.92519 | -80.87982 | 34545 ft | 457 kts | 296° |
| 2026-04-27 14:20 | 9.94055 | -80.90764 | 34944 ft | 455 kts | 296° |
| 2026-04-27 14:21 | 9.95608 | -80.93578 | 35304 ft | 453 kts | 296° |
| 2026-04-27 14:21 | 9.97145 | -80.96351 | 35656 ft | 451 kts | 296° |
| 2026-04-27 14:21 | 9.98721 | -80.99073 | 35932 ft | 451 kts | 299° |
| 2026-04-27 14:22 | 10.02592 | -81.04136 | 35970 ft | 459 kts | 309° |
| 2026-04-27 14:22 | 10.07024 | -81.08817 | 35966 ft | 456 kts | 311° |
| 2026-04-27 14:23 | 10.11454 | -81.13424 | 35967 ft | 455 kts | 311° |
| 2026-04-27 14:23 | 10.15833 | -81.18014 | 35967 ft | 455 kts | 311° |
| 2026-04-27 14:24 | 10.20234 | -81.22646 | 35964 ft | 455 kts | 311° |
| 2026-04-27 14:24 | 10.24650 | -81.27302 | 35958 ft | 456 kts | 311° |
| 2026-04-27 14:25 | 10.29039 | -81.31937 | 35955 ft | 455 kts | 311° |
| 2026-04-27 14:25 | 10.33403 | -81.36549 | 35956 ft | 455 kts | 311° |
| 2026-04-27 14:26 | 10.37792 | -81.41190 | 35954 ft | 455 kts | 311° |
| 2026-04-27 14:26 | 10.42191 | -81.45843 | 35955 ft | 455 kts | 311° |
| 2026-04-27 14:27 | 10.46589 | -81.50500 | 35955 ft | 456 kts | 311° |
| 2026-04-27 14:27 | 10.50963 | -81.55132 | 35955 ft | 454 kts | 311° |